createdAt,value
2018-03-14T00:00:54.887Z,77.60
2018-03-14T00:03:22.029Z,78.26
2018-03-14T00:05:49.107Z,78.66
2018-03-14T00:08:15.432Z,79.74
2018-03-14T00:10:41.739Z,79.34
2018-03-14T00:13:08.828Z,78.36
2018-03-14T00:15:35.142Z,78.36
2018-03-14T00:18:01.495Z,77.01
2018-03-14T00:20:27.803Z,77.37
2018-03-14T00:22:54.162Z,77.40
2018-03-14T00:25:20.455Z,78.14
2018-03-14T00:27:47.516Z,77.60
2018-03-14T00:30:13.827Z,76.96
2018-03-14T00:32:40.926Z,77.95
2018-03-14T00:35:07.271Z,77.13
2018-03-14T00:37:33.600Z,78.12
2018-03-14T00:39:59.896Z,78.19
2018-03-14T00:42:26.202Z,78.43
2018-03-14T00:44:53.256Z,77.86
2018-03-14T00:47:20.324Z,76.88
2018-03-14T00:49:46.620Z,77.40
2018-03-14T00:52:13.741Z,78.97
2018-03-14T00:54:40.100Z,78.07
2018-03-14T00:57:07.156Z,77.74
2018-03-14T00:59:34.193Z,78.24
2018-03-14T01:02:00.514Z,77.74
2018-03-14T01:04:26.854Z,78.58
2018-03-14T01:06:53.963Z,78.19
2018-03-14T01:09:20.359Z,77.26
2018-03-14T01:11:46.687Z,78.35
2018-03-14T01:14:13.751Z,78.38
2018-03-14T01:16:40.073Z,79.02
2018-03-14T01:19:06.376Z,79.11
2018-03-14T01:21:32.726Z,77.64
2018-03-14T01:23:59.788Z,77.80
2018-03-14T01:26:26.112Z,77.68
2018-03-14T01:28:53.155Z,77.28
2018-03-14T01:31:20.171Z,77.53
2018-03-14T01:33:46.514Z,77.12
2018-03-14T01:36:13.562Z,77.17
2018-03-14T01:38:39.901Z,76.32
2018-03-14T01:41:06.207Z,76.70
2018-03-14T01:43:32.541Z,75.82
2018-03-14T01:46:00.326Z,75.51
2018-03-14T01:48:27.385Z,75.70
2018-03-14T01:50:54.440Z,75.63
2018-03-14T01:53:30.463Z,76.34
2018-03-14T01:55:58.308Z,76.22
2018-03-14T01:58:24.640Z,75.26
2018-03-14T02:00:50.983Z,74.26
2018-03-14T02:03:17.322Z,74.21
2018-03-14T02:05:43.588Z,74.53
2018-03-14T02:08:10.596Z,75.07
2018-03-14T02:10:36.931Z,75.20
2018-03-14T02:13:03.223Z,74.46
2018-03-14T02:15:29.536Z,75.53
2018-03-14T02:17:55.838Z,74.92
2018-03-14T02:20:22.176Z,74.45
2018-03-14T02:22:49.248Z,73.99
2018-03-14T02:25:15.575Z,74.15
2018-03-14T02:27:41.890Z,74.25
2018-03-14T02:30:08.923Z,74.08
2018-03-14T02:32:35.281Z,74.60
2018-03-14T02:35:01.632Z,74.91
2018-03-14T02:37:27.915Z,74.06
2018-03-14T02:39:54.217Z,74.26
2018-03-14T02:42:20.586Z,74.93
2018-03-14T02:44:46.869Z,74.21
2018-03-14T02:47:13.144Z,73.30
2018-03-14T02:49:39.479Z,72.35
2018-03-14T02:52:05.791Z,72.42
2018-03-14T02:54:32.088Z,73.11
2018-03-14T02:56:58.401Z,73.35
2018-03-14T02:59:24.712Z,73.49
2018-03-14T03:01:51.040Z,74.36
2018-03-14T03:04:18.884Z,73.48
2018-03-14T03:06:49.129Z,73.65
2018-03-14T03:09:15.431Z,73.48
2018-03-14T03:11:41.721Z,73.42
2018-03-14T03:14:08.035Z,73.76
2018-03-14T03:16:35.071Z,73.78
2018-03-14T03:19:02.131Z,74.42
2018-03-14T03:21:29.195Z,73.41
2018-03-14T03:23:55.520Z,72.98
2018-03-14T03:26:22.635Z,72.92
2018-03-14T03:28:48.966Z,73.46
2018-03-14T03:31:15.253Z,73.11
2018-03-14T03:33:41.543Z,72.98
2018-03-14T03:36:07.853Z,73.41
2018-03-14T03:38:34.158Z,73.28
2018-03-14T03:41:00.452Z,73.27
2018-03-14T03:43:26.770Z,73.50
2018-03-14T03:45:53.795Z,74.11
2018-03-14T03:48:20.095Z,73.33
2018-03-14T03:50:46.448Z,73.55
2018-03-14T03:53:12.783Z,73.75
2018-03-14T03:55:39.116Z,73.31
2018-03-14T03:58:05.447Z,73.01
2018-03-14T04:00:31.815Z,72.57
2018-03-14T04:02:58.861Z,72.35
2018-03-14T04:05:25.870Z,73.00
2018-03-14T04:07:52.193Z,73.36
2018-03-14T04:10:18.503Z,72.65
2018-03-14T04:12:44.832Z,72.64
2018-03-14T04:15:11.189Z,73.29
2018-03-14T04:17:37.457Z,73.07
2018-03-14T04:20:04.564Z,73.15
2018-03-14T04:22:30.869Z,73.61
2018-03-14T04:24:57.192Z,74.26
2018-03-14T04:27:23.493Z,74.06
2018-03-14T04:29:50.642Z,73.15
2018-03-14T04:32:16.946Z,73.03
2018-03-14T04:34:43.254Z,73.43
2018-03-14T04:37:14.381Z,73.58
2018-03-14T04:39:40.880Z,73.14
2018-03-14T04:42:07.915Z,73.37
2018-03-14T04:44:34.224Z,73.50
2018-03-14T04:47:00.521Z,73.57
2018-03-14T04:49:26.855Z,72.95
2018-03-14T04:51:57.310Z,72.94
2018-03-14T04:54:23.632Z,73.95
2018-03-14T04:56:49.977Z,73.87
2018-03-14T04:59:16.293Z,74.04
2018-03-14T05:01:43.557Z,73.83
2018-03-14T05:04:09.861Z,74.11
2018-03-14T05:06:36.171Z,73.19
2018-03-14T05:09:03.263Z,72.54
2018-03-14T05:11:29.581Z,73.03
2018-03-14T05:13:55.909Z,73.93
2018-03-14T05:16:22.227Z,73.56
2018-03-14T05:18:48.499Z,73.83
2018-03-14T05:21:16.832Z,74.21
2018-03-14T05:23:43.172Z,73.84
2018-03-14T05:26:09.491Z,74.74
2018-03-14T05:28:36.554Z,74.05
2018-03-14T05:31:02.868Z,74.13
2018-03-14T05:33:30.876Z,73.25
2018-03-14T05:35:57.876Z,72.48
2018-03-14T05:38:24.876Z,72.61
2018-03-14T05:40:51.184Z,73.95
2018-03-14T05:43:17.465Z,73.30
2018-03-14T05:45:44.828Z,73.30
2018-03-14T05:48:11.140Z,74.40
2018-03-14T05:50:37.429Z,73.74
2018-03-14T05:53:03.745Z,74.26
2018-03-14T05:55:30.155Z,74.30
2018-03-14T05:57:57.169Z,74.07
2018-03-14T06:00:23.496Z,73.59
2018-03-14T06:02:49.855Z,73.69
2018-03-14T06:05:16.171Z,74.21
2018-03-14T06:07:42.506Z,73.53
2018-03-14T06:10:08.846Z,74.16
2018-03-14T06:12:35.208Z,74.50
2018-03-14T06:15:02.254Z,73.59
2018-03-14T06:17:29.300Z,72.88
2018-03-14T06:19:56.351Z,71.94
2018-03-14T06:22:23.396Z,72.20
2018-03-14T06:24:50.457Z,71.79
2018-03-14T06:27:16.766Z,71.19
2018-03-14T06:29:43.569Z,71.84
2018-03-14T06:32:09.851Z,71.53
2018-03-14T06:34:36.901Z,71.92
2018-03-14T06:37:03.907Z,71.53
2018-03-14T06:39:30.241Z,71.25
2018-03-14T06:41:56.512Z,70.83
2018-03-14T06:44:23.586Z,70.02
2018-03-14T06:46:49.879Z,70.17
2018-03-14T06:49:16.920Z,69.57
2018-03-14T06:51:43.246Z,69.12
2018-03-14T06:54:09.494Z,68.76
2018-03-14T06:56:36.512Z,69.56
2018-03-14T06:59:21.440Z,70.88
2018-03-14T07:05:15.651Z,70.77
2018-03-14T07:07:41.935Z,72.76
2018-03-14T07:10:08.267Z,72.47
2018-03-14T07:12:35.331Z,72.70
2018-03-14T07:15:03.280Z,72.14
2018-03-14T07:17:29.572Z,72.23
2018-03-14T07:19:55.931Z,72.99
2018-03-14T07:22:22.299Z,72.70
2018-03-14T07:24:48.608Z,70.19
2018-03-14T07:27:15.028Z,69.43
2018-03-14T07:29:41.428Z,69.47
2018-03-14T07:32:07.761Z,70.76
2018-03-14T07:34:34.056Z,69.95
2018-03-14T07:37:00.376Z,69.38
2018-03-14T07:39:27.386Z,70.13
2018-03-14T07:41:53.652Z,70.23
2018-03-14T07:44:20.678Z,72.01
2018-03-14T07:46:47.732Z,73.14
2018-03-14T07:49:14.029Z,73.51
2018-03-14T07:51:40.321Z,71.69
2018-03-14T07:54:07.379Z,70.62
2018-03-14T07:56:33.694Z,69.56
2018-03-14T07:59:00.775Z,68.23
2018-03-14T08:01:27.783Z,68.99
2018-03-14T08:03:54.799Z,69.47
2018-03-14T08:06:21.133Z,71.07
2018-03-14T08:08:47.403Z,71.60
2018-03-14T08:11:14.402Z,71.17
2018-03-14T08:13:40.949Z,70.41
2018-03-14T08:16:07.063Z,70.38
2018-03-14T08:18:33.402Z,70.45
2018-03-14T08:20:59.728Z,70.56
2018-03-14T08:23:26.038Z,69.69
2018-03-14T08:25:52.334Z,68.05
2018-03-14T08:28:18.640Z,69.04
2018-03-14T08:30:44.969Z,67.59
2018-03-14T08:33:11.311Z,66.34
2018-03-14T08:35:38.939Z,66.58
2018-03-14T08:38:05.219Z,65.80
2018-03-14T08:40:31.547Z,66.60
2018-03-14T08:42:58.602Z,65.71
2018-03-14T08:45:24.903Z,65.53
2018-03-14T08:47:51.236Z,64.65
2018-03-14T08:50:17.556Z,63.57
2018-03-14T08:52:43.865Z,63.22
2018-03-14T08:55:10.141Z,63.34
2018-03-14T08:57:37.193Z,63.84
2018-03-14T09:00:04.198Z,64.33
2018-03-14T09:02:30.517Z,62.48
2018-03-14T09:04:56.776Z,63.73
2018-03-14T09:07:23.150Z,63.15
2018-03-14T09:09:49.435Z,62.14
2018-03-14T09:12:15.784Z,62.52
2018-03-14T09:14:42.793Z,63.22
2018-03-14T09:17:10.037Z,63.62
2018-03-14T09:19:36.315Z,64.30
2018-03-14T09:22:03.400Z,63.58
2018-03-14T09:24:29.685Z,64.39
2018-03-14T09:26:56.017Z,62.83
2018-03-14T09:29:22.351Z,62.02
2018-03-14T09:31:48.683Z,60.64
2018-03-14T09:34:15.073Z,62.39
2018-03-14T09:36:41.439Z,63.09
2018-03-14T09:39:09.227Z,62.87
2018-03-14T09:41:35.550Z,60.92
2018-03-14T09:44:02.578Z,58.89
2018-03-14T09:46:28.836Z,58.78
2018-03-14T09:48:55.816Z,59.46
2018-03-14T09:51:22.107Z,59.12
2018-03-14T09:53:48.383Z,61.86
2018-03-14T09:56:14.671Z,60.48
2018-03-14T09:58:41.676Z,60.14
2018-03-14T10:01:07.951Z,59.85
2018-03-14T10:03:34.943Z,59.84
2018-03-14T10:06:01.268Z,60.33
2018-03-14T10:08:27.603Z,60.19
2018-03-14T10:10:53.899Z,59.71
2018-03-14T10:13:20.223Z,58.40
2018-03-14T10:15:47.257Z,56.08
2018-03-14T10:18:14.326Z,56.03
2018-03-14T10:20:41.306Z,56.02
2018-03-14T10:23:07.595Z,56.65
2018-03-14T10:25:34.729Z,55.60
2018-03-14T10:28:01.012Z,56.44
2018-03-14T10:30:27.304Z,57.11
2018-03-14T10:32:54.352Z,57.26
2018-03-14T10:35:21.430Z,55.66
2018-03-14T10:37:48.468Z,55.31
2018-03-14T10:40:14.780Z,55.43
2018-03-14T10:42:41.058Z,55.31
2018-03-14T10:45:07.320Z,57.07
2018-03-14T10:47:33.628Z,55.61
2018-03-14T10:49:59.898Z,53.94
2018-03-14T10:52:26.926Z,54.92
2018-03-14T10:54:53.233Z,55.77
2018-03-14T10:57:19.557Z,56.08
2018-03-14T10:59:46.795Z,57.89
2018-03-14T11:02:14.954Z,56.72
2018-03-14T11:04:41.293Z,58.39
2018-03-14T11:07:07.613Z,57.81
2018-03-14T11:09:33.889Z,56.31
2018-03-14T11:12:00.182Z,56.45
2018-03-14T11:14:26.524Z,54.93
2018-03-14T11:16:52.798Z,56.03
2018-03-14T11:19:20.570Z,55.24
2018-03-14T11:21:47.645Z,55.40
2018-03-14T11:24:13.929Z,55.06
2018-03-14T11:26:40.232Z,55.76
2018-03-14T11:29:06.591Z,56.34
2018-03-14T11:31:40.056Z,56.33
2018-03-14T11:34:06.392Z,54.80
2018-03-14T11:36:32.712Z,56.19
2018-03-14T11:38:59.008Z,56.55
2018-03-14T11:41:26.070Z,56.57
2018-03-14T11:43:53.120Z,54.91
2018-03-14T11:46:20.178Z,54.45
2018-03-14T11:48:46.506Z,54.62
2018-03-14T11:51:12.765Z,54.14
2018-03-14T11:53:39.060Z,54.87
2018-03-14T11:56:05.325Z,56.96
2018-03-14T11:58:31.565Z,57.07
2018-03-14T12:00:57.897Z,55.64
2018-03-14T12:03:24.196Z,55.73
2018-03-14T12:05:50.523Z,56.37
2018-03-14T12:08:16.807Z,55.06
2018-03-14T12:10:43.130Z,55.65
2018-03-14T12:13:09.423Z,58.07
2018-03-14T12:15:36.472Z,57.68
2018-03-14T12:18:02.786Z,57.63
2018-03-14T12:20:29.059Z,55.14
2018-03-14T12:22:55.367Z,53.85
2018-03-14T12:25:21.678Z,54.38
2018-03-14T12:27:48.022Z,55.20
2018-03-14T12:30:14.342Z,53.12
2018-03-14T12:32:40.682Z,52.84
2018-03-14T12:35:13.919Z,51.60
2018-03-14T12:37:40.220Z,52.26
2018-03-14T12:40:06.484Z,55.64
2018-03-14T12:42:32.807Z,54.75
2018-03-14T12:44:59.125Z,54.16
2018-03-14T12:47:25.409Z,54.04
2018-03-14T12:49:52.412Z,54.49
2018-03-14T12:52:18.717Z,55.01
2018-03-14T12:54:45.023Z,54.11
2018-03-14T12:57:11.341Z,54.83
2018-03-14T12:59:37.606Z,55.35
2018-03-14T13:02:03.943Z,55.93
2018-03-14T13:04:30.288Z,55.71
2018-03-14T13:06:56.623Z,55.01
2018-03-14T13:09:22.967Z,55.58
2018-03-14T13:11:49.356Z,56.19
2018-03-14T13:14:15.727Z,55.64
2018-03-14T13:16:42.028Z,55.04
2018-03-14T13:19:08.352Z,53.70
2018-03-14T13:21:34.686Z,55.12
2018-03-14T13:24:01.040Z,56.04
2018-03-14T13:26:27.415Z,57.71
2018-03-14T13:28:53.709Z,57.34
2018-03-14T13:31:20.056Z,55.23
2018-03-14T13:33:46.383Z,54.38
2018-03-14T13:36:12.724Z,53.44
2018-03-14T13:38:39.036Z,54.01
2018-03-14T13:41:05.395Z,52.75
2018-03-14T13:43:31.700Z,53.04
2018-03-14T13:45:58.006Z,54.01
2018-03-14T13:48:24.342Z,54.54
2018-03-14T13:50:50.640Z,54.58
2018-03-14T13:53:16.990Z,53.69
2018-03-14T13:55:43.259Z,52.74
2018-03-14T13:58:09.584Z,51.66
2018-03-14T14:00:35.918Z,52.62
2018-03-14T14:03:02.239Z,52.04
2018-03-14T14:05:28.506Z,52.25
2018-03-14T14:07:55.691Z,53.06
2018-03-14T14:10:21.991Z,53.23
2018-03-14T14:12:49.041Z,53.40
2018-03-14T14:15:16.103Z,53.17
2018-03-14T14:17:43.277Z,54.66
2018-03-14T14:20:09.599Z,55.76
2018-03-14T14:22:35.891Z,55.91
2018-03-14T14:25:02.713Z,55.99
2018-03-14T14:27:29.098Z,54.72
2018-03-14T14:29:55.496Z,52.74
2018-03-14T14:32:21.780Z,52.12
2018-03-14T14:34:48.135Z,51.14
2018-03-14T14:37:14.454Z,51.42
2018-03-14T14:39:40.738Z,50.47
2018-03-14T14:42:07.767Z,51.94
2018-03-14T14:44:34.029Z,51.02
2018-03-14T14:47:00.340Z,49.24
2018-03-14T14:49:27.394Z,49.87
2018-03-14T14:51:54.425Z,51.00
2018-03-14T14:54:20.773Z,49.08
2018-03-14T14:56:47.823Z,49.15
2018-03-14T14:59:14.132Z,48.88
2018-03-14T15:01:40.456Z,49.14
2018-03-14T15:04:06.749Z,48.19
2018-03-14T15:06:34.141Z,48.13
2018-03-14T15:09:00.396Z,49.85
2018-03-14T15:11:27.401Z,50.56
2018-03-14T15:13:53.718Z,51.18
2018-03-14T15:16:20.006Z,50.29
2018-03-14T15:18:47.064Z,49.69
2018-03-14T15:21:13.486Z,50.67
2018-03-14T15:23:39.788Z,51.10
2018-03-14T15:26:06.107Z,52.58
2018-03-14T15:28:32.402Z,51.74
2018-03-14T15:30:58.742Z,51.58
2018-03-14T15:33:25.065Z,51.38
2018-03-14T15:35:51.353Z,52.47
2018-03-14T15:38:17.644Z,52.34
2018-03-14T15:40:44.032Z,52.69
2018-03-14T15:43:10.439Z,53.63
2018-03-14T15:45:36.820Z,53.57
2018-03-14T15:48:03.175Z,53.30
2018-03-14T15:50:29.504Z,52.69
2018-03-14T15:52:55.865Z,52.30
2018-03-14T15:55:22.151Z,52.65
2018-03-14T15:57:48.453Z,53.42
2018-03-14T16:00:15.502Z,53.82
2018-03-14T16:02:42.623Z,54.29
2018-03-14T16:05:08.942Z,54.47
2018-03-14T16:07:35.252Z,54.66
2018-03-14T16:10:02.398Z,54.41
2018-03-14T16:12:28.694Z,54.37
2018-03-14T16:14:55.678Z,54.72
2018-03-14T16:17:21.972Z,55.02
2018-03-14T16:19:49.093Z,55.08
2018-03-14T16:22:15.389Z,56.24
2018-03-14T16:24:41.665Z,56.04
2018-03-14T16:27:08.775Z,55.30
2018-03-14T16:29:35.293Z,55.20
2018-03-14T16:32:01.631Z,55.16
2018-03-14T16:34:27.933Z,55.10
2018-03-14T16:36:55.037Z,54.92
2018-03-14T16:39:22.193Z,56.09
2018-03-14T16:41:48.474Z,55.46
2018-03-14T16:44:14.777Z,55.26
2018-03-14T16:46:41.722Z,54.63
2018-03-14T16:49:08.028Z,54.85
2018-03-14T16:51:35.862Z,55.20
2018-03-14T16:54:02.172Z,55.32
2018-03-14T16:56:29.282Z,55.36
2018-03-14T16:58:55.574Z,54.82
2018-03-14T17:01:21.857Z,54.72
2018-03-14T17:03:48.962Z,54.59
2018-03-14T17:06:15.269Z,55.22
2018-03-14T17:08:41.590Z,55.74
2018-03-14T17:11:07.973Z,56.09
2018-03-14T17:13:34.221Z,55.62
2018-03-14T17:16:00.521Z,56.40
2018-03-14T17:18:26.871Z,56.66
2018-03-14T17:20:53.160Z,57.60
2018-03-14T17:23:19.444Z,57.47
2018-03-14T17:25:45.724Z,57.23
2018-03-14T17:28:12.057Z,57.23
2018-03-14T17:30:38.339Z,57.38
2018-03-14T17:33:04.644Z,57.09
2018-03-14T17:35:30.981Z,57.25
2018-03-14T17:37:57.312Z,57.23
2018-03-14T17:40:23.653Z,57.02
2018-03-14T17:42:50.023Z,56.83
2018-03-14T17:45:17.052Z,56.83
2018-03-14T17:47:43.436Z,56.81
2018-03-14T17:50:09.826Z,56.39
2018-03-14T17:52:36.896Z,56.71
2018-03-14T17:55:03.184Z,57.07
2018-03-14T17:57:29.500Z,57.33
2018-03-14T17:59:55.761Z,57.67
2018-03-14T18:02:22.068Z,57.19
2018-03-14T18:04:48.390Z,57.53
2018-03-14T18:07:14.708Z,57.84
2018-03-14T18:09:41.041Z,57.87
2018-03-14T18:12:07.396Z,57.77
2018-03-14T18:14:33.710Z,57.96
2018-03-14T18:17:00.019Z,57.20
2018-03-14T18:19:26.262Z,57.01
2018-03-14T18:21:52.514Z,57.28
2018-03-14T18:24:21.517Z,56.77
2018-03-14T18:26:48.670Z,57.11
2018-03-14T18:29:15.054Z,57.35
2018-03-14T18:31:41.463Z,56.95
2018-03-14T18:34:07.805Z,56.82
2018-03-14T18:36:34.214Z,57.38
2018-03-14T18:39:04.048Z,56.53
2018-03-14T18:41:30.410Z,56.50
2018-03-14T18:43:56.778Z,56.65
2018-03-14T18:46:23.108Z,56.86
2018-03-14T18:48:49.546Z,56.70
2018-03-14T18:51:16.833Z,57.00
2018-03-14T18:53:44.195Z,57.19
2018-03-14T18:56:10.525Z,56.99
2018-03-14T18:58:36.830Z,57.26
2018-03-14T19:01:03.172Z,57.96
2018-03-14T19:03:30.221Z,57.13
2018-03-14T19:05:57.284Z,57.23
2018-03-14T19:08:23.652Z,56.93
2018-03-14T19:10:49.992Z,57.00
2018-03-14T19:13:16.427Z,56.42
2018-03-14T19:15:42.798Z,57.46
2018-03-14T19:18:09.898Z,57.85
2018-03-14T19:20:36.275Z,58.05
2018-03-14T19:23:02.650Z,58.94
2018-03-14T19:25:29.013Z,58.98
2018-03-14T19:27:55.380Z,59.09
2018-03-14T19:30:21.766Z,58.90
2018-03-14T19:32:48.193Z,57.15
2018-03-14T19:35:14.600Z,56.64
2018-03-14T19:37:41.065Z,56.89
2018-03-14T19:40:07.427Z,56.64
2018-03-14T19:42:33.791Z,57.07
2018-03-14T19:45:00.118Z,57.98
2018-03-14T19:47:26.551Z,58.67
2018-03-14T19:49:53.031Z,59.52
2018-03-14T19:52:19.608Z,59.21
2018-03-14T19:54:46.688Z,59.74
2018-03-14T19:57:13.096Z,59.46
2018-03-14T19:59:40.348Z,58.81
2018-03-14T20:02:06.693Z,58.39
2018-03-14T20:04:33.147Z,58.41
2018-03-14T20:06:59.585Z,58.47
2018-03-14T20:09:26.068Z,57.97
2018-03-14T20:11:53.324Z,58.45
2018-03-14T20:14:20.429Z,57.92
2018-03-14T20:16:46.748Z,57.85
2018-03-14T20:19:13.339Z,58.42
2018-03-14T20:21:40.468Z,58.50
2018-03-14T20:24:06.801Z,59.03
2018-03-14T20:26:33.298Z,58.49
2018-03-14T20:28:59.644Z,58.53
2018-03-14T20:31:25.975Z,58.78
2018-03-14T20:33:52.437Z,59.21
2018-03-14T20:36:18.873Z,59.58
2018-03-14T20:38:45.275Z,59.35
2018-03-14T20:41:11.665Z,60.43
2018-03-14T20:43:38.786Z,60.79
2018-03-14T20:46:06.002Z,60.10
2018-03-14T20:48:32.504Z,59.81
2018-03-14T20:50:59.312Z,59.50
2018-03-14T20:53:26.430Z,59.77
2018-03-14T20:55:52.799Z,59.56
2018-03-14T20:58:19.079Z,59.53
2018-03-14T21:00:45.400Z,59.58
2018-03-14T21:03:11.764Z,60.00
2018-03-14T21:05:38.115Z,60.61
2018-03-14T21:08:04.417Z,61.19
2018-03-14T21:10:30.779Z,61.37
2018-03-14T21:12:57.135Z,61.55
2018-03-14T21:15:27.096Z,61.69
2018-03-14T21:17:53.575Z,61.65
2018-03-14T21:26:03.973Z,61.90
2018-03-14T21:28:30.558Z,61.44
2018-03-14T21:30:56.881Z,61.27
2018-03-14T21:33:23.292Z,61.50
2018-03-14T21:35:50.428Z,61.90
2018-03-14T21:38:20.023Z,61.98
2018-03-14T21:40:49.645Z,62.71
2018-03-14T21:43:29.577Z,62.22
2018-03-14T21:45:58.076Z,61.56
2018-03-14T21:48:32.635Z,61.11
2018-03-14T21:50:59.237Z,61.83
2018-03-14T21:53:37.055Z,62.36
2018-03-14T21:56:03.427Z,62.36
2018-03-14T21:58:29.744Z,62.18
2018-03-14T22:00:56.033Z,62.17
2018-03-14T22:03:22.361Z,61.97
2018-03-14T22:05:49.514Z,61.84
2018-03-14T22:08:16.658Z,62.09
2018-03-14T22:10:42.932Z,61.94
2018-03-14T22:13:09.385Z,62.19
2018-03-14T22:15:35.803Z,62.41
2018-03-14T22:18:02.122Z,63.50
2018-03-14T22:20:28.520Z,63.99
2018-03-14T22:22:54.855Z,63.85
2018-03-14T22:25:21.201Z,63.52
2018-03-14T22:27:48.306Z,63.62
2018-03-14T22:30:14.624Z,63.67
2018-03-14T22:32:40.936Z,64.09
2018-03-14T22:35:07.556Z,63.91
2018-03-14T22:37:34.611Z,63.21
2018-03-14T22:40:00.985Z,63.01
2018-03-14T22:42:27.259Z,62.86
2018-03-14T22:44:54.318Z,63.36
2018-03-14T22:47:27.596Z,64.31
2018-03-14T22:49:54.674Z,65.18
2018-03-14T22:52:20.989Z,65.28
2018-03-14T22:54:47.284Z,65.03
2018-03-14T22:57:13.782Z,65.35
2018-03-14T22:59:40.070Z,64.87
2018-03-14T23:02:07.097Z,64.68
2018-03-14T23:04:33.401Z,64.29
2018-03-14T23:06:59.729Z,64.21
2018-03-14T23:09:26.167Z,64.77
2018-03-14T23:11:53.280Z,65.07
2018-03-14T23:14:19.605Z,65.26
2018-03-14T23:16:46.643Z,65.45
2018-03-14T23:19:13.728Z,65.68
2018-03-14T23:21:40.096Z,65.60
2018-03-14T23:24:06.434Z,65.16
2018-03-14T23:26:32.787Z,65.09
2018-03-14T23:29:00.121Z,64.48
2018-03-14T23:31:26.482Z,64.54
2018-03-14T23:33:53.515Z,64.17
2018-03-14T23:36:20.645Z,64.38
2018-03-14T23:38:47.017Z,64.76
2018-03-14T23:41:14.097Z,64.79
2018-03-14T23:43:40.466Z,64.96
2018-03-14T23:46:06.813Z,64.84
2018-03-14T23:48:33.153Z,64.24
2018-03-14T23:51:00.201Z,63.19
2018-03-14T23:53:26.509Z,63.11
2018-03-14T23:55:52.965Z,63.84
2018-03-14T23:58:19.999Z,64.09
